Time;durP1;ratioP1;P1;durP2;ratioP2;P2;SDS_P1;SDS_P2;PMS_P1;PMS_P2;Temp;Humidity;BMP_temperature;BMP_pressure;BME280_temperature;BME280_humidity;BME280_pressure;Samples;Min_cycle;Max_cycle;Signal;HPM_P1;HPM_P2
2022/07/01 00:00:32;;;;;;;25.73;18.83;;;14.70;99.90;;;;;;5032001;28;20067;-84
2022/07/01 00:02:58;;;;;;;28.02;20.42;;;14.60;99.90;;;;;;5015709;28;20029;-84
2022/07/01 00:05:23;;;;;;;27.63;19.77;;;14.60;99.90;;;;;;5015481;28;20027;-84
2022/07/01 00:07:49;;;;;;;24.63;19.38;;;14.60;99.90;;;;;;5018860;28;20038;-84
2022/07/01 00:10:15;;;;;;;26.98;20.92;;;14.60;99.90;;;;;;5019462;28;20017;-84
2022/07/01 00:12:41;;;;;;;29.65;21.42;;;14.60;99.90;;;;;;5019381;28;20029;-84
2022/07/01 00:15:07;;;;;;;32.40;22.45;;;14.60;99.90;;;;;;5019417;28;20036;-84
2022/07/01 00:17:33;;;;;;;32.60;22.60;;;14.60;99.90;;;;;;5019209;28;20508;-84
2022/07/01 00:19:58;;;;;;;37.17;24.08;;;14.60;99.90;;;;;;5019037;28;20029;-84
2022/07/01 00:22:25;;;;;;;32.05;22.27;;;14.60;99.90;;;;;;5018968;28;20117;-84
2022/07/01 00:24:50;;;;;;;32.38;23.52;;;14.60;99.90;;;;;;5019149;28;20081;-84
2022/07/01 00:27:16;;;;;;;35.72;24.88;;;14.60;99.90;;;;;;5019023;28;20116;-84
2022/07/01 00:29:41;;;;;;;34.20;24.92;;;14.60;99.90;;;;;;5035323;28;20030;-84
2022/07/01 00:32:07;;;;;;;40.58;26.45;;;14.50;99.90;;;;;;5018878;28;20026;-84
2022/07/01 00:34:33;;;;;;;36.42;24.85;;;14.50;99.90;;;;;;5018845;28;20036;-85
2022/07/01 00:36:59;;;;;;;41.95;28.00;;;14.50;99.90;;;;;;5018505;28;20045;-84
2022/07/01 00:39:24;;;;;;;40.42;27.67;;;14.40;99.90;;;;;;5018790;28;20022;-84
2022/07/01 00:41:50;;;;;;;46.45;29.67;;;14.40;99.90;;;;;;5018582;28;20033;-84
2022/07/01 00:44:19;;;;;;;49.17;30.48;;;14.30;99.90;;;;;;5018726;28;20037;-84
2022/07/01 00:46:46;;;;;;;47.75;30.65;;;14.30;99.90;;;;;;5018514;28;20029;-84
2022/07/01 00:49:12;;;;;;;49.03;31.00;;;14.20;99.90;;;;;;5018552;28;20473;-84
2022/07/01 00:51:37;;;;;;;47.63;30.50;;;14.30;99.90;;;;;;5018701;28;20036;-84
2022/07/01 00:54:03;;;;;;;57.78;34.67;;;14.20;99.90;;;;;;5018480;28;20257;-84
2022/07/01 00:56:29;;;;;;;55.08;34.15;;;14.20;99.90;;;;;;5018522;28;20037;-84
2022/07/01 00:58:55;;;;;;;55.72;34.83;;;14.20;99.90;;;;;;5018427;28;20378;-84
2022/07/01 01:01:22;;;;;;;53.15;34.92;;;14.20;99.90;;;;;;5035036;28;20135;-84
2022/07/01 01:03:48;;;;;;;60.00;38.08;;;14.20;99.90;;;;;;5018349;28;20477;-84
2022/07/01 01:06:15;;;;;;;55.70;36.08;;;14.20;99.90;;;;;;5018061;28;20537;-85
2022/07/01 01:08:41;;;;;;;56.65;36.13;;;14.20;99.90;;;;;;5017885;28;20120;-84
2022/07/01 01:11:07;;;;;;;54.88;37.40;;;14.20;99.90;;;;;;5018343;28;20075;-84
2022/07/01 01:13:33;;;;;;;54.58;36.10;;;14.20;99.90;;;;;;5034669;28;20386;-84
2022/07/01 01:15:58;;;;;;;52.08;35.30;;;14.30;99.90;;;;;;5034636;28;20032;-84
2022/07/01 01:18:24;;;;;;;48.40;34.50;;;14.30;99.90;;;;;;5034466;28;20056;-84
2022/07/01 01:20:52;;;;;;;51.05;35.58;;;14.30;99.90;;;;;;5017685;28;20049;-83
2022/07/01 01:23:17;;;;;;;53.03;35.05;;;14.30;99.90;;;;;;5017819;28;20017;-84
2022/07/01 01:25:43;;;;;;;50.35;35.08;;;14.30;99.90;;;;;;5034472;28;20033;-85
2022/07/01 01:28:10;;;;;;;53.72;36.10;;;14.20;99.90;;;;;;5034381;28;20032;-84
2022/07/01 01:30:35;;;;;;;55.17;36.00;;;14.20;99.90;;;;;;5017916;28;20486;-84
2022/07/01 01:33:01;;;;;;;51.88;35.35;;;14.30;99.90;;;;;;5034213;28;20032;-84
2022/07/01 01:35:27;;;;;;;47.75;33.97;;;14.20;99.90;;;;;;5017574;28;20089;-84
2022/07/01 01:37:52;;;;;;;49.00;33.30;;;14.20;99.90;;;;;;5034210;28;20033;-85
2022/07/01 01:40:18;;;;;;;44.22;33.13;;;14.20;99.90;;;;;;5034080;28;20489;-84
2022/07/01 01:42:44;;;;;;;50.53;34.78;;;14.20;99.90;;;;;;5034110;28;20049;-84
2022/07/01 01:45:11;;;;;;;48.33;32.40;;;14.20;99.90;;;;;;5017529;28;20461;-85
2022/07/01 01:47:37;;;;;;;46.15;33.20;;;14.20;99.90;;;;;;5017220;28;20477;-84
2022/07/01 01:50:05;;;;;;;48.30;33.13;;;14.10;99.90;;;;;;5017460;28;20079;-84
2022/07/01 01:52:31;;;;;;;49.05;35.05;;;14.10;99.90;;;;;;5017567;28;20061;-84
2022/07/01 01:54:56;;;;;;;48.58;33.22;;;14.10;99.90;;;;;;5033913;28;20025;-85
2022/07/01 01:57:22;;;;;;;44.92;32.88;;;14.10;99.90;;;;;;5033986;28;20055;-84
2022/07/01 01:59:47;;;;;;;48.75;33.08;;;14.10;99.90;;;;;;5033774;28;20512;-84
2022/07/01 02:02:13;;;;;;;51.63;34.38;;;14.10;99.90;;;;;;5038029;28;20033;-85
2022/07/01 02:04:38;;;;;;;50.40;34.67;;;14.10;99.90;;;;;;5037086;28;20100;-84
2022/07/01 02:07:04;;;;;;;53.13;34.35;;;14.10;99.90;;;;;;5036687;28;20033;-84
2022/07/01 02:09:30;;;;;;;53.25;33.92;;;14.10;99.90;;;;;;5036915;28;20068;-85
2022/07/01 02:11:56;;;;;;;51.28;33.55;;;14.10;99.90;;;;;;5037364;28;20029;-85
2022/07/01 02:14:21;;;;;;;47.10;32.97;;;14.10;99.90;;;;;;5036977;28;20025;-84
2022/07/01 02:16:47;;;;;;;49.45;33.20;;;14.10;99.90;;;;;;5036899;28;20041;-85
2022/07/01 02:19:12;;;;;;;52.85;33.17;;;14.00;99.90;;;;;;5036734;28;20029;-85
2022/07/01 02:21:39;;;;;;;53.03;33.50;;;14.00;99.90;;;;;;5036782;28;20043;-85
2022/07/01 02:24:04;;;;;;;56.28;33.90;;;14.00;99.90;;;;;;5036869;28;20029;-85
2022/07/01 02:26:30;;;;;;;54.83;35.30;;;14.00;99.90;;;;;;5036706;28;20560;-85
2022/07/01 02:28:55;;;;;;;55.25;36.05;;;14.00;99.90;;;;;;5036112;28;20492;-85
2022/07/01 02:31:21;;;;;;;50.78;32.20;;;14.10;99.90;;;;;;5054247;28;20029;-85
2022/07/01 02:33:47;;;;;;;51.28;33.92;;;14.10;99.90;;;;;;5036558;28;20112;-85
2022/07/01 02:36:13;;;;;;;51.65;34.08;;;14.10;99.90;;;;;;5053991;28;20103;-85
2022/07/01 02:38:38;;;;;;;54.28;34.55;;;14.10;99.90;;;;;;5036516;28;20021;-85
2022/07/01 02:41:04;;;;;;;54.83;33.95;;;14.10;99.90;;;;;;5054025;28;20033;-84
2022/07/01 02:43:29;;;;;;;52.95;34.05;;;14.10;99.90;;;;;;5053979;28;20113;-85
2022/07/01 02:45:57;;;;;;;54.55;33.38;;;14.10;99.90;;;;;;5054012;28;20033;-85
2022/07/01 02:48:23;;;;;;;52.90;33.05;;;14.10;99.90;;;;;;5053995;28;20021;-85
2022/07/01 02:50:48;;;;;;;50.20;32.60;;;14.10;99.90;;;;;;5036116;28;20186;-85
2022/07/01 02:53:14;;;;;;;54.33;33.47;;;14.10;99.90;;;;;;5053992;28;20036;-84
2022/07/01 02:55:39;;;;;;;51.42;32.47;;;14.10;99.90;;;;;;5035944;28;20099;-84
2022/07/01 02:58:05;;;;;;;51.67;32.70;;;14.10;99.90;;;;;;5036105;28;20112;-85
2022/07/01 03:00:30;;;;;;;50.55;32.03;;;14.10;99.90;;;;;;5053659;28;20051;-84
2022/07/01 03:02:56;;;;;;;52.90;32.78;;;14.10;99.90;;;;;;5036100;28;20392;-85
2022/07/01 03:05:21;;;;;;;50.00;31.85;;;14.10;99.90;;;;;;5035488;28;20021;-85
2022/07/01 03:07:47;;;;;;;52.35;33.10;;;14.00;99.90;;;;;;5035943;28;20108;-84
2022/07/01 03:10:13;;;;;;;52.95;33.45;;;14.00;99.90;;;;;;5035977;28;20469;-84
2022/07/01 03:12:39;;;;;;;49.85;31.90;;;14.00;99.90;;;;;;5036021;28;20056;-85
2022/07/01 03:15:08;;;;;;;54.60;33.55;;;14.00;99.90;;;;;;5036268;28;20025;-84
2022/07/01 03:17:36;;;;;;;50.92;32.83;;;13.90;99.90;;;;;;5053551;28;20100;-85
2022/07/01 03:20:03;;;;;;;54.35;33.00;;;13.90;99.90;;;;;;5035675;28;20439;-84
2022/07/01 03:22:30;;;;;;;51.55;31.13;;;13.80;99.90;;;;;;5035922;28;20378;-85
2022/07/01 03:24:57;;;;;;;53.03;32.55;;;13.80;99.90;;;;;;5035918;28;20021;-85
2022/07/01 03:27:24;;;;;;;54.03;31.63;;;13.80;99.90;;;;;;5035717;28;20033;-85
2022/07/01 03:29:50;;;;;;;56.45;33.45;;;13.80;99.90;;;;;;5053392;28;20025;-85
2022/07/01 03:32:15;;;;;;;54.75;31.88;;;13.80;99.90;;;;;;5053661;28;20033;-84
2022/07/01 03:34:44;;;;;;;54.05;32.72;;;13.80;99.90;;;;;;5053415;28;20388;-85
2022/07/01 03:37:12;;;;;;;53.80;33.05;;;13.80;99.90;;;;;;5053426;28;20524;-85
2022/07/01 03:39:39;;;;;;;53.40;31.13;;;13.80;99.90;;;;;;5035726;28;20029;-85
2022/07/01 03:42:05;;;;;;;58.03;33.38;;;13.90;99.90;;;;;;5037764;28;20056;-84
2022/07/01 03:44:32;;;;;;;57.17;32.58;;;13.90;99.90;;;;;;5057549;28;20384;-84
2022/07/01 03:46:57;;;;;;;58.78;32.28;;;13.90;99.90;;;;;;5039664;28;20056;-85
2022/07/01 03:49:23;;;;;;;58.28;32.03;;;13.90;99.90;;;;;;5039356;28;20055;-84
2022/07/01 03:51:49;;;;;;;58.28;32.08;;;14.00;99.90;;;;;;5039492;28;20032;-85
2022/07/01 03:54:30;;;;;;;53.60;30.77;;;14.00;99.90;;;;;;5039497;28;20059;-84
2022/07/01 03:57:03;;;;;;;56.63;31.88;;;14.00;99.90;;;;;;5039453;28;20032;-84
2022/07/01 03:59:33;;;;;;;55.65;31.42;;;14.00;99.90;;;;;;5034914;28;20025;-85
2022/07/01 04:01:59;;;;;;;54.45;30.67;;;14.10;99.90;;;;;;5019301;28;20517;-84
2022/07/01 04:04:26;;;;;;;53.78;31.38;;;14.00;99.90;;;;;;5037030;28;20025;-84
2022/07/01 04:06:53;;;;;;;52.80;29.63;;;14.10;99.90;;;;;;5037058;28;20083;-84
2022/07/01 04:09:19;;;;;;;55.40;32.15;;;14.10;99.90;;;;;;5036696;28;20397;-84
2022/07/01 04:11:45;;;;;;;50.65;29.95;;;14.10;99.90;;;;;;5036988;28;20025;-84
2022/07/01 04:14:11;;;;;;;52.88;30.13;;;14.10;99.90;;;;;;5036909;28;20021;-84
2022/07/01 04:16:37;;;;;;;55.70;30.40;;;14.10;99.90;;;;;;5035293;28;20091;-84
2022/07/01 04:19:03;;;;;;;53.85;31.20;;;14.10;99.90;;;;;;5036766;28;20477;-84
2022/07/01 04:24:16;;;;;;;51.75;29.52;;;14.10;99.90;;;;;;5037100;28;20032;-84
2022/07/01 04:26:42;;;;;;;48.53;28.73;;;14.10;99.90;;;;;;5036525;28;20108;-84
2022/07/01 04:29:08;;;;;;;47.92;29.60;;;14.10;99.90;;;;;;5018942;28;20021;-85
2022/07/01 04:31:35;;;;;;;51.20;29.25;;;14.10;99.90;;;;;;5019028;28;20029;-84
2022/07/01 04:34:00;;;;;;;52.60;28.90;;;14.10;99.90;;;;;;5018996;28;20025;-84
2022/07/01 04:36:26;;;;;;;49.15;29.05;;;14.00;99.90;;;;;;5035191;28;20409;-84
2022/07/01 04:38:52;;;;;;;46.28;28.38;;;14.00;99.90;;;;;;5035201;28;20478;-85
2022/07/01 04:44:02;;;;;;;54.67;29.35;;;13.90;99.90;;;;;;5036582;28;20036;-84
2022/07/01 04:46:28;;;;;;;50.25;29.65;;;13.80;99.90;;;;;;5035054;28;20030;-85
2022/07/01 04:48:54;;;;;;;51.97;30.42;;;13.80;99.90;;;;;;5035142;28;20112;-84
2022/07/01 04:51:19;;;;;;;56.00;31.77;;;13.80;99.90;;;;;;5035016;28;20026;-84
2022/07/01 04:53:45;;;;;;;57.08;31.38;;;13.80;99.90;;;;;;5034811;28;20363;-84
2022/07/01 04:56:10;;;;;;;51.88;30.75;;;13.80;99.90;;;;;;5034798;28;20033;-84
2022/07/01 04:58:36;;;;;;;48.95;29.80;;;13.80;99.90;;;;;;5034949;28;20018;-84
2022/07/01 05:01:01;;;;;;;57.80;30.55;;;13.70;99.90;;;;;;5034808;28;20474;-84
2022/07/01 05:03:27;;;;;;;56.00;31.10;;;13.70;99.90;;;;;;5034971;28;20371;-84
2022/07/01 05:05:52;;;;;;;54.63;31.23;;;13.70;99.90;;;;;;5034522;28;20474;-84
2022/07/01 05:08:18;;;;;;;50.80;29.40;;;13.80;99.90;;;;;;5034629;28;20021;-83
2022/07/01 05:10:43;;;;;;;49.47;28.90;;;13.80;99.90;;;;;;5034612;28;20021;-84
2022/07/01 05:13:09;;;;;;;51.75;30.08;;;13.90;99.90;;;;;;5034587;28;20068;-84
2022/07/01 05:15:34;;;;;;;50.22;29.20;;;13.90;99.90;;;;;;5034636;28;20025;-84
2022/07/01 05:23:28;;;;;;;47.08;27.05;;;14.20;99.90;;;;;;5035966;28;20037;-84
2022/07/01 05:25:53;;;;;;;47.15;27.83;;;14.30;99.90;;;;;;5034564;28;20030;-84
2022/07/01 05:28:19;;;;;;;46.42;27.98;;;14.30;99.90;;;;;;5034281;28;20363;-84
2022/07/01 05:30:45;;;;;;;42.13;26.00;;;14.30;99.90;;;;;;5035500;28;20084;-84
2022/07/01 05:33:10;;;;;;;42.88;25.95;;;14.40;99.90;;;;;;5034511;28;20504;-84
2022/07/01 05:35:36;;;;;;;45.42;25.80;;;14.40;99.90;;;;;;5034388;28;20029;-83
2022/07/01 05:38:02;;;;;;;42.45;25.05;;;14.50;99.90;;;;;;5017483;28;20052;-84
2022/07/01 05:40:28;;;;;;;42.22;24.70;;;14.50;99.90;;;;;;5017367;28;20033;-84
2022/07/01 05:42:53;;;;;;;44.75;26.08;;;14.60;99.90;;;;;;5034072;28;20021;-83
2022/07/01 05:45:19;;;;;;;41.55;25.17;;;14.60;99.90;;;;;;5034080;28;20060;-84
2022/07/01 05:47:44;;;;;;;43.90;26.10;;;14.60;99.90;;;;;;5034029;28;20048;-84
2022/07/01 05:50:10;;;;;;;48.30;26.00;;;14.60;99.90;;;;;;5033876;28;20029;-84
2022/07/01 05:52:35;;;;;;;43.58;25.52;;;14.60;99.90;;;;;;5033949;28;20021;-83
2022/07/01 05:55:01;;;;;;;42.13;26.77;;;14.70;99.90;;;;;;5033798;28;20121;-84
2022/07/01 05:57:27;;;;;;;42.55;26.00;;;14.70;99.90;;;;;;5017197;28;20022;-84
2022/07/01 05:59:53;;;;;;;41.45;25.40;;;14.70;99.90;;;;;;5017106;28;20485;-84
2022/07/01 06:02:18;;;;;;;45.13;26.20;;;14.70;99.90;;;;;;5017037;28;20029;-84
2022/07/01 06:04:44;;;;;;;43.13;25.30;;;14.80;99.90;;;;;;5016533;28;20013;-84
2022/07/01 06:07:10;;;;;;;42.33;25.63;;;14.80;99.90;;;;;;5017141;28;20464;-83
2022/07/01 06:09:36;;;;;;;40.20;24.60;;;14.80;99.90;;;;;;5016999;28;20022;-85
2022/07/01 06:12:02;;;;;;;40.08;24.27;;;14.80;99.90;;;;;;5016856;28;20465;-83
2022/07/01 06:14:28;;;;;;;35.42;22.65;;;14.80;99.90;;;;;;5016834;28;20032;-84
2022/07/01 06:16:53;;;;;;;41.53;24.00;;;14.80;99.90;;;;;;5016923;28;20025;-84
2022/07/01 06:19:19;;;;;;;37.08;22.95;;;14.80;99.90;;;;;;5017118;28;20025;-85
2022/07/01 06:21:46;;;;;;;39.83;24.02;;;14.90;99.90;;;;;;5016892;28;20508;-84
2022/07/01 06:24:11;;;;;;;38.17;23.00;;;14.90;99.90;;;;;;5016747;28;20116;-84
2022/07/01 06:26:36;;;;;;;36.25;23.40;;;15.00;99.90;;;;;;5016630;28;20112;-84
2022/07/01 06:29:02;;;;;;;39.53;25.33;;;15.20;99.90;;;;;;5034297;28;20034;-84
2022/07/01 06:31:28;;;;;;;42.90;25.95;;;15.20;99.90;;;;;;5017182;28;20025;-84
2022/07/01 06:33:54;;;;;;;42.63;25.25;;;15.20;99.90;;;;;;5016674;28;20021;-84
2022/07/01 06:36:20;;;;;;;35.90;23.80;;;15.20;99.90;;;;;;5016508;28;20175;-84
2022/07/01 06:38:45;;;;;;;38.78;24.65;;;15.20;99.90;;;;;;5016524;28;20028;-84
2022/07/01 06:41:26;;;;;;;34.90;23.85;;;15.20;99.90;;;;;;5034056;28;20037;-84
2022/07/01 06:43:52;;;;;;;35.88;24.15;;;15.20;99.90;;;;;;5016567;28;20029;-84
2022/07/01 06:46:19;;;;;;;39.22;24.40;;;15.30;99.90;;;;;;5016496;28;20036;-85
2022/07/01 06:48:44;;;;;;;37.30;24.05;;;15.50;99.90;;;;;;5016408;28;20026;-85
2022/07/01 06:51:10;;;;;;;37.85;22.90;;;15.80;99.90;;;;;;5016041;28;20037;-84
2022/07/01 06:53:35;;;;;;;31.48;21.55;;;16.10;99.90;;;;;;5016240;28;20414;-85
2022/07/01 06:56:01;;;;;;;31.25;21.15;;;16.30;99.90;;;;;;5016185;28;20029;-84
2022/07/01 06:58:26;;;;;;;31.17;22.42;;;16.50;99.90;;;;;;5016327;28;20026;-84
2022/07/01 07:00:52;;;;;;;32.63;20.98;;;16.70;99.90;;;;;;5016268;28;20040;-84
2022/07/01 07:03:18;;;;;;;29.33;21.30;;;16.80;99.90;;;;;;5016161;28;20025;-84
2022/07/01 07:05:43;;;;;;;26.08;18.20;;;16.70;99.90;;;;;;5016133;28;20378;-84
2022/07/01 07:08:09;;;;;;;27.88;17.92;;;16.60;99.90;;;;;;5015939;28;20021;-85
2022/07/01 07:10:35;;;;;;;25.98;18.48;;;16.60;99.90;;;;;;5016131;28;20033;-84
2022/07/01 07:13:00;;;;;;;27.10;18.45;;;16.60;99.90;;;;;;5033785;28;20025;-84
2022/07/01 07:15:26;;;;;;;29.83;17.60;;;16.70;99.90;;;;;;5033799;28;20492;-84
2022/07/01 07:17:51;;;;;;;23.90;17.85;;;16.70;99.90;;;;;;5016086;28;20481;-84
2022/07/01 07:20:17;;;;;;;25.63;16.90;;;16.80;99.90;;;;;;5016109;28;20393;-84
2022/07/01 07:22:42;;;;;;;24.15;17.38;;;16.90;99.90;;;;;;5016107;28;20485;-84
2022/07/01 07:25:08;;;;;;;21.15;16.23;;;17.00;99.90;;;;;;5016005;28;20080;-84
2022/07/01 07:27:34;;;;;;;25.65;16.85;;;17.20;99.90;;;;;;5015960;28;20030;-84
2022/07/01 07:29:59;;;;;;;25.00;16.63;;;17.30;99.90;;;;;;5016157;28;20079;-84
2022/07/01 07:32:25;;;;;;;26.60;16.60;;;17.40;99.90;;;;;;5015987;28;20049;-84
2022/07/01 07:34:50;;;;;;;23.08;14.73;;;17.60;99.90;;;;;;5032383;28;20104;-85
2022/07/01 07:37:16;;;;;;;22.08;14.93;;;17.70;99.90;;;;;;5015556;28;20408;-85
2022/07/01 07:39:41;;;;;;;19.73;13.65;;;17.80;99.90;;;;;;5016047;28;20108;-85
2022/07/01 07:42:07;;;;;;;19.50;13.63;;;17.70;99.90;;;;;;5015569;28;20076;-84
2022/07/01 07:44:32;;;;;;;16.88;13.13;;;17.70;99.90;;;;;;5033513;28;20160;-84
2022/07/01 07:46:58;;;;;;;16.75;11.63;;;17.60;99.90;;;;;;5015672;28;20103;-84
2022/07/01 07:49:24;;;;;;;19.23;11.20;;;17.60;99.90;;;;;;5033282;28;20022;-85
2022/07/01 07:51:50;;;;;;;12.30;9.38;;;17.60;99.90;;;;;;5015568;28;20025;-85
2022/07/01 07:54:16;;;;;;;17.77;9.30;;;17.60;99.90;;;;;;5015516;28;20488;-85
2022/07/01 07:56:41;;;;;;;14.68;9.13;;;17.70;99.90;;;;;;5032160;28;20080;-85
2022/07/01 07:59:07;;;;;;;11.02;7.55;;;17.80;99.90;;;;;;5033207;28;20064;-85
2022/07/01 08:01:32;;;;;;;13.85;7.10;;;17.80;99.90;;;;;;5015795;28;20029;-85
2022/07/01 08:03:58;;;;;;;11.95;7.60;;;18.00;99.90;;;;;;5015816;28;20022;-85
2022/07/01 08:06:23;;;;;;;14.25;6.45;;;18.20;99.90;;;;;;5015476;28;20025;-84
2022/07/01 08:08:49;;;;;;;9.55;5.47;;;18.40;99.90;;;;;;5015771;28;20032;-85
2022/07/01 08:11:15;;;;;;;8.45;4.57;;;18.60;99.90;;;;;;5033207;28;20100;-84
2022/07/01 08:13:40;;;;;;;7.95;3.65;;;18.70;99.90;;;;;;5015573;28;20173;-85
2022/07/01 08:16:07;;;;;;;9.02;3.00;;;18.60;99.90;;;;;;5015765;28;20025;-85
2022/07/01 08:18:32;;;;;;;6.10;2.47;;;18.60;99.90;;;;;;5033434;28;20040;-85
2022/07/01 08:20:58;;;;;;;5.45;2.50;;;18.60;99.90;;;;;;5033038;28;20041;-85
2022/07/01 08:23:23;;;;;;;8.95;2.40;;;18.60;99.90;;;;;;5033009;28;20025;-84
2022/07/01 08:25:50;;;;;;;6.82;2.85;;;18.60;99.90;;;;;;5033066;28;20033;-85
2022/07/01 08:28:16;;;;;;;5.10;2.15;;;18.60;99.90;;;;;;5034216;28;20023;-85
2022/07/01 08:30:42;;;;;;;6.75;2.65;;;18.70;99.90;;;;;;5036643;28;20121;-85
2022/07/01 08:33:09;;;;;;;7.47;2.72;;;18.80;99.90;;;;;;5018963;28;20021;-85
2022/07/01 08:35:34;;;;;;;6.50;2.03;;;18.80;99.90;;;;;;5019017;28;20029;-85
2022/07/01 08:38:01;;;;;;;7.88;2.47;;;18.90;99.90;;;;;;5018841;28;20131;-85
2022/07/01 08:40:28;;;;;;;11.60;3.72;;;19.00;99.90;;;;;;5018910;28;20030;-86
2022/07/01 08:43:02;;;;;;;7.38;2.95;;;19.00;99.90;;;;;;5018842;28;20036;-85
2022/07/01 08:45:30;;;;;;;4.88;2.10;;;19.20;99.90;;;;;;5018817;28;20203;-85
2022/07/01 08:48:00;;;;;;;8.15;2.33;;;19.40;99.90;;;;;;5018826;28;20021;-85
2022/07/01 08:50:27;;;;;;;7.47;1.95;;;19.50;99.90;;;;;;5018548;28;20026;-85
2022/07/01 08:52:53;;;;;;;6.13;1.63;;;19.50;99.90;;;;;;5019098;28;20114;-86
2022/07/01 08:55:20;;;;;;;7.28;1.90;;;19.60;99.90;;;;;;5018725;28;20025;-85
2022/07/01 08:57:46;;;;;;;5.10;1.02;;;19.80;99.90;;;;;;5018586;28;20172;-85
2022/07/01 09:00:12;;;;;;;3.80;0.82;;;20.00;99.90;;;;;;5018337;28;20021;-86
2022/07/01 09:03:01;;;;;;;3.08;0.88;;;20.10;99.90;;;;;;5036187;28;20485;-85
2022/07/01 09:05:28;;;;;;;2.72;0.90;;;20.10;99.90;;;;;;5018366;28;20071;-85
2022/07/01 09:08:03;;;;;;;7.00;0.85;;;20.00;99.90;;;;;;5018501;28;20032;-86
2022/07/01 09:10:34;;;;;;;2.95;1.05;;;20.00;99.90;;;;;;5018149;28;20116;-84
2022/07/01 09:13:08;;;;;;;3.53;0.95;;;19.90;99.90;;;;;;5018288;28;20044;-84
2022/07/01 09:15:35;;;;;;;3.42;0.68;;;19.50;99.90;;;;;;5017982;28;20033;-85
2022/07/01 09:18:05;;;;;;;4.57;0.68;;;19.30;99.90;;;;;;5017815;28;20029;-85
2022/07/01 09:20:33;;;;;;;3.50;0.57;;;19.10;99.90;;;;;;5035639;28;20079;-85
2022/07/01 09:23:12;;;;;;;3.15;0.60;;;19.10;99.90;;;;;;5035868;28;20021;-85
2022/07/01 09:25:39;;;;;;;2.58;0.70;;;19.30;99.90;;;;;;5036209;28;20026;-86
2022/07/01 09:28:14;;;;;;;4.72;1.40;;;19.60;99.90;;;;;;5017889;28;20028;-85
2022/07/01 09:30:51;;;;;;;3.70;1.00;;;19.90;99.90;;;;;;5017906;28;20366;-85
2022/07/01 09:33:24;;;;;;;2.58;0.80;;;20.10;99.90;;;;;;5017954;28;20104;-85
2022/07/01 09:35:50;;;;;;;3.58;0.40;;;20.10;99.90;;;;;;5016443;28;20434;-85
2022/07/01 09:38:21;;;;;;;2.53;0.50;;;20.00;99.90;;;;;;5033965;28;20040;-85
2022/07/01 09:40:48;;;;;;;2.72;0.50;;;20.20;99.90;;;;;;5017047;28;20485;-85
2022/07/01 09:43:17;;;;;;;3.55;0.80;;;20.10;99.90;;;;;;5017665;28;20129;-85
2022/07/01 09:46:09;;;;;;;3.58;0.47;;;20.20;99.90;;;;;;5035409;28;20021;-84
2022/07/01 09:48:35;;;;;;;1.17;0.30;;;20.00;99.90;;;;;;5032042;28;20038;-85
2022/07/01 09:51:05;;;;;;;3.17;0.57;;;20.00;99.90;;;;;;5017415;28;20128;-85
2022/07/01 09:53:32;;;;;;;1.85;0.40;;;20.20;99.90;;;;;;5035417;28;20053;-84
2022/07/01 09:55:58;;;;;;;3.13;0.82;;;20.50;99.90;;;;;;5017367;28;20024;-85
2022/07/01 09:58:23;;;;;;;2.42;0.40;;;20.60;99.90;;;;;;5034616;28;20029;-85
2022/07/01 10:00:51;;;;;;;2.58;0.30;;;20.60;99.90;;;;;;5034916;28;20095;-84
2022/07/01 10:03:18;;;;;;;2.08;0.30;;;20.70;99.90;;;;;;5017108;28;20036;-86
2022/07/01 10:06:21;;;;;;;10.10;1.35;;;20.90;99.90;;;;;;5034706;28;20028;-85
2022/07/01 10:09:07;;;;;;;2.85;0.30;;;21.10;99.90;;;;;;5034027;28;20032;-85
2022/07/01 10:12:05;;;;;;;1.85;0.20;;;21.20;98.80;;;;;;5016984;28;20017;-85
2022/07/01 10:14:32;;;;;;;2.25;0.30;;;21.10;98.00;;;;;;5033593;28;20049;-85
2022/07/01 10:16:57;;;;;;;1.67;0.40;;;21.10;97.90;;;;;;5034108;28;20029;-85
2022/07/01 10:19:24;;;;;;;2.55;0.30;;;21.20;97.50;;;;;;5016970;28;20442;-85
2022/07/01 10:21:52;;;;;;;2.75;0.30;;;21.30;97.00;;;;;;5033540;28;20040;-84
2022/07/01 10:24:18;;;;;;;4.10;0.40;;;21.30;95.90;;;;;;5016917;28;20022;-85
2022/07/01 10:26:45;;;;;;;3.08;0.47;;;21.30;95.80;;;;;;5016907;28;20116;-85
2022/07/01 10:29:34;;;;;;;1.77;0.30;;;21.30;94.70;;;;;;5016849;28;20052;-84
2022/07/01 10:32:08;;;;;;;1.20;0.30;;;21.20;94.40;;;;;;5016702;28;20117;-85
2022/07/01 10:34:41;;;;;;;2.63;0.40;;;21.40;94.00;;;;;;5016842;28;20504;-86
2022/07/01 10:37:11;;;;;;;3.92;0.40;;;21.40;93.50;;;;;;5013263;28;20054;-85
2022/07/01 10:40:09;;;;;;;3.58;0.30;;;21.50;93.20;;;;;;5014497;28;20486;-86
2022/07/01 10:42:58;;;;;;;4.03;0.30;;;21.60;92.40;;;;;;4991774;28;20049;-85
2022/07/01 10:45:24;;;;;;;1.63;0.30;;;21.70;92.20;;;;;;5030225;28;20026;-86
2022/07/01 10:48:25;;;;;;;3.05;0.30;;;21.80;92.20;;;;;;5013237;28;20030;-85
2022/07/01 10:50:51;;;;;;;1.48;0.35;;;21.90;91.10;;;;;;5025529;28;20036;-86
2022/07/01 10:53:18;;;;;;;2.22;0.30;;;21.90;90.90;;;;;;5033105;28;20025;-85
2022/07/01 10:55:51;;;;;;;1.05;0.40;;;21.90;90.40;;;;;;5033037;28;20474;-85
2022/07/01 10:58:20;;;;;;;4.72;0.30;;;21.90;89.90;;;;;;5032895;28;20029;-86
2022/07/01 11:00:50;;;;;;;1.60;0.22;;;21.80;88.50;;;;;;5032909;28;20366;-85
2022/07/01 11:03:21;;;;;;;2.50;0.30;;;21.60;88.60;;;;;;5032856;28;20466;-85
2022/07/01 11:05:49;;;;;;;4.07;0.30;;;21.50;88.10;;;;;;5032966;28;20537;-85
2022/07/01 11:08:15;;;;;;;2.30;0.30;;;21.40;88.40;;;;;;5032781;28;20034;-85
2022/07/01 11:10:41;;;;;;;2.03;0.30;;;21.40;88.10;;;;;;5032440;28;20060;-86
2022/07/01 11:13:08;;;;;;;2.50;0.35;;;21.30;88.10;;;;;;5032705;28;20374;-85
2022/07/01 11:15:34;;;;;;;2.80;0.20;;;21.10;88.30;;;;;;5032726;28;20035;-85
2022/07/01 11:18:01;;;;;;;4.35;0.50;;;20.80;88.80;;;;;;5032506;28;20021;-85
2022/07/01 11:20:29;;;;;;;2.70;0.30;;;20.60;89.50;;;;;;5032354;28;20022;-86
2022/07/01 11:22:55;;;;;;;2.25;0.20;;;20.40;90.00;;;;;;5032648;28;20025;-85
2022/07/01 11:25:22;;;;;;;0.80;0.20;;;20.30;90.30;;;;;;5032791;28;20036;-86
2022/07/01 11:27:50;;;;;;;2.60;0.28;;;20.30;90.40;;;;;;5033766;28;20037;-85
2022/07/01 11:30:17;;;;;;;3.20;0.30;;;20.50;90.50;;;;;;5032294;28;20113;-85
2022/07/01 11:32:54;;;;;;;1.77;0.22;;;20.70;89.80;;;;;;5033692;28;20075;-85
2022/07/01 11:41:08;;;;;;;1.58;0.30;;;21.30;86.50;;;;;;5053461;28;20056;-86
2022/07/01 11:43:39;;;;;;;2.03;0.30;;;21.40;87.00;;;;;;5053480;28;20025;-85
2022/07/01 11:46:06;;;;;;;2.88;0.30;;;21.60;86.40;;;;;;5053321;28;20427;-85
2022/07/01 11:48:50;;;;;;;2.50;0.30;;;21.70;86.90;;;;;;5030512;28;20018;-85
2022/07/01 11:51:22;;;;;;;1.42;0.30;;;22.00;86.80;;;;;;5015874;28;20030;-85
2022/07/01 11:53:56;;;;;;;3.22;0.25;;;22.20;85.10;;;;;;5033630;28;20421;-86
2022/07/01 11:56:34;;;;;;;1.48;0.30;;;22.30;84.40;;;;;;5032396;28;20038;-86
2022/07/01 11:59:01;;;;;;;3.63;0.30;;;22.40;83.40;;;;;;5015976;28;20067;-86
2022/07/01 12:01:29;;;;;;;2.08;0.25;;;22.30;82.90;;;;;;5033277;28;20030;-86
2022/07/01 12:03:57;;;;;;;1.38;0.40;;;22.10;83.70;;;;;;5019288;28;20025;-86
2022/07/01 12:06:23;;;;;;;2.60;0.22;;;22.00;84.60;;;;;;5037445;28;20469;-86
2022/07/01 12:08:50;;;;;;;1.75;0.30;;;21.80;85.00;;;;;;5046136;28;20516;-86
2022/07/01 12:11:17;;;;;;;2.47;0.30;;;21.50;85.50;;;;;;5056925;28;20037;-86
2022/07/01 12:13:45;;;;;;;4.75;0.30;;;21.40;85.60;;;;;;5054890;28;20037;-87
2022/07/01 12:16:12;;;;;;;3.58;0.40;;;21.40;85.40;;;;;;5031677;28;20040;-86
2022/07/01 12:18:38;;;;;;;1.90;0.32;;;21.30;85.40;;;;;;5047357;28;20021;-85
2022/07/01 12:21:04;;;;;;;3.40;0.30;;;21.10;85.20;;;;;;5033598;28;20033;-87
2022/07/01 12:23:32;;;;;;;2.70;0.40;;;21.00;86.00;;;;;;5029585;28;20021;-85
2022/07/01 12:25:58;;;;;;;1.90;0.30;;;20.90;86.00;;;;;;5028542;28;20484;-84
2022/07/01 12:28:43;;;;;;;1.83;0.40;;;20.90;86.70;;;;;;5036808;28;20025;-83
2022/07/01 12:31:10;;;;;;;2.58;0.30;;;20.90;86.80;;;;;;5040799;28;20584;-84
2022/07/01 12:33:47;;;;;;;2.78;0.30;;;20.80;86.80;;;;;;5036224;28;20119;-83
2022/07/01 12:36:15;;;;;;;7.28;1.02;;;20.80;86.90;;;;;;5032306;28;20048;-83
2022/07/01 12:38:41;;;;;;;3.33;0.43;;;20.70;87.30;;;;;;5046721;28;20029;-84
2022/07/01 12:41:26;;;;;;;2.03;0.35;;;20.80;87.30;;;;;;5049355;28;20501;-83
2022/07/01 12:43:51;;;;;;;2.25;0.40;;;20.70;87.00;;;;;;5050789;28;20096;-83
2022/07/01 12:46:28;;;;;;;2.83;0.60;;;20.50;88.10;;;;;;5027718;28;20552;-83
2022/07/01 12:48:54;;;;;;;3.40;0.50;;;20.40;88.30;;;;;;5048336;28;20029;-82
2022/07/01 12:51:19;;;;;;;1.50;0.30;;;20.50;88.50;;;;;;5030411;28;20035;-83